Time;durP1;ratioP1;P1;durP2;ratioP2;P2;SDS_P1;SDS_P2;PMS_P1;PMS_P2;Temp;Humidity;BMP_temperature;BMP_pressure;BME280_temperature;BME280_humidity;BME280_pressure;Samples;Min_cycle;Max_cycle;Signal;HPM_P1;HPM_P2
2023/06/25 00:00:10;;;;;;;5.97;5.38;;;;;;;16.38;98.42;101990.09;5016267;28;20658;-44
2023/06/25 00:02:44;;;;;;;6.25;5.18;;;;;;;16.21;99.54;101988.13;5012468;28;20165;-43
2023/06/25 00:05:10;;;;;;;6.00;5.22;;;;;;;16.22;100.00;101987.19;5011191;28;20200;-43
2023/06/25 00:07:35;;;;;;;7.07;4.90;;;;;;;16.29;100.00;101985.09;5012231;28;20235;-43
2023/06/25 00:10:01;;;;;;;4.90;4.50;;;;;;;16.48;100.00;101982.44;5012419;28;20165;-43
2023/06/25 00:12:27;;;;;;;5.00;4.45;;;;;;;16.58;100.00;101980.22;5012555;28;20203;-42
2023/06/25 00:14:53;;;;;;;5.57;5.07;;;;;;;16.50;100.00;101975.13;5012360;28;20201;-43
2023/06/25 00:17:18;;;;;;;7.40;5.07;;;;;;;16.52;99.27;101972.38;5012459;28;20193;-44
2023/06/25 00:19:45;;;;;;;5.50;5.00;;;;;;;16.16;99.95;101978.44;5012123;28;20658;-45
2023/06/25 00:22:11;;;;;;;6.78;4.88;;;;;;;16.18;100.00;101981.94;5012443;28;20164;-44
2023/06/25 00:24:40;;;;;;;5.35;4.85;;;;;;;16.06;100.00;101976.13;5012305;28;20530;-43
2023/06/25 00:27:06;;;;;;;7.28;5.60;;;;;;;15.99;100.00;101985.47;5011976;28;20177;-43
2023/06/25 00:29:35;;;;;;;5.50;5.00;;;;;;;15.94;100.00;101975.78;4994459;28;20394;-44
2023/06/25 00:32:01;;;;;;;6.97;5.82;;;;;;;15.96;100.00;101988.31;5011835;28;20544;-45
2023/06/25 00:34:26;;;;;;;5.50;5.10;;;;;;;15.94;100.00;101973.06;5012110;28;20192;-44
2023/06/25 00:36:52;;;;;;;6.35;5.25;;;;;;;15.85;100.00;101979.75;4994263;28;20240;-42
2023/06/25 00:39:19;;;;;;;6.53;5.20;;;;;;;16.01;100.00;101971.88;5011944;28;20540;-43
2023/06/25 00:41:44;;;;;;;5.35;4.93;;;;;;;16.19;100.00;101979.19;4994081;28;20192;-43
2023/06/25 00:44:10;;;;;;;5.68;5.10;;;;;;;16.18;100.00;101982.84;5011414;28;20306;-44
2023/06/25 00:46:36;;;;;;;5.45;4.53;;;;;;;16.21;100.00;101976.44;4994083;28;20205;-43
2023/06/25 00:49:05;;;;;;;5.57;5.07;;;;;;;16.22;100.00;101978.19;4994241;28;20179;-44
2023/06/25 00:51:36;;;;;;;5.35;4.85;;;;;;;16.06;100.00;101978.84;5010286;28;20177;-43
2023/06/25 00:54:05;;;;;;;5.82;5.28;;;;;;;15.91;100.00;101968.69;5011757;28;20204;-43
2023/06/25 00:56:37;;;;;;;5.45;4.95;;;;;;;16.16;100.00;101968.53;5011697;28;20173;-43
2023/06/25 00:59:03;;;;;;;5.45;4.95;;;;;;;16.25;100.00;101968.13;4993875;28;20167;-44
2023/06/25 01:01:49;;;;;;;5.40;5.00;;;;;;;16.26;100.00;101961.75;5011470;28;20169;-42
2023/06/25 01:04:22;;;;;;;5.90;5.30;;;;;;;15.95;100.00;101964.91;5010580;28;20192;-44
2023/06/25 01:06:51;;;;;;;7.95;5.80;;;;;;;15.83;100.00;101971.72;5011360;28;20161;-42
2023/06/25 01:09:17;;;;;;;5.47;4.97;;;;;;;16.01;100.00;101972.75;4993752;28;20176;-43
2023/06/25 01:12:02;;;;;;;5.72;4.97;;;;;;;16.06;100.00;101959.03;5011360;28;20850;-42
2023/06/25 01:14:28;;;;;;;5.93;5.32;;;;;;;16.01;100.00;101970.06;4993569;28;20339;-43
2023/06/25 01:16:57;;;;;;;6.07;5.57;;;;;;;15.82;100.00;101963.66;4993103;28;20207;-44
2023/06/25 01:19:29;;;;;;;5.78;5.25;;;;;;;15.88;100.00;101963.41;5011181;28;20199;-43
2023/06/25 01:21:59;;;;;;;5.00;4.60;;;;;;;15.94;100.00;101955.06;5011061;28;20161;-43
2023/06/25 01:24:26;;;;;;;5.70;5.07;;;;;;;15.94;100.00;101963.16;5010952;28;20287;-44
2023/06/25 01:26:59;;;;;;;5.78;5.28;;;;;;;15.77;100.00;101965.69;5010945;28;20173;-43
2023/06/25 01:29:27;;;;;;;5.97;5.47;;;;;;;15.50;100.00;101962.25;5010882;28;20161;-43
2023/06/25 01:31:53;;;;;;;5.60;5.10;;;;;;;15.41;100.00;101963.50;5010388;28;20239;-42
2023/06/25 01:34:20;;;;;;;5.82;5.22;;;;;;;15.49;100.00;101958.69;4993303;28;20188;-44
2023/06/25 01:36:49;;;;;;;5.70;5.30;;;;;;;15.52;100.00;101963.06;5010883;28;20256;-43
2023/06/25 01:39:18;;;;;;;5.22;4.82;;;;;;;15.68;100.00;101966.03;4993271;28;20220;-44
2023/06/25 01:41:45;;;;;;;5.80;5.20;;;;;;;15.71;100.00;101957.81;5010938;28;20223;-43
2023/06/25 01:44:14;;;;;;;5.72;5.22;;;;;;;15.73;100.00;101967.63;5010768;28;20227;-43
2023/06/25 01:46:40;;;;;;;5.05;4.65;;;;;;;15.78;100.00;101960.22;5010827;28;20257;-43
2023/06/25 01:49:05;;;;;;;5.97;5.47;;;;;;;15.68;100.00;101958.81;4993125;28;20180;-44
2023/06/25 01:51:33;;;;;;;6.05;5.45;;;;;;;15.50;100.00;101946.94;5010771;28;20193;-43
2023/06/25 01:53:59;;;;;;;6.00;5.50;;;;;;;15.45;100.00;101957.06;4992942;28;20211;-43
2023/06/25 01:56:26;;;;;;;6.20;4.80;;;;;;;15.47;100.00;101952.47;5010613;28;20181;-42
2023/06/25 01:58:53;;;;;;;5.75;4.93;;;;;;;15.38;100.00;101960.94;5010591;28;20223;-43
2023/06/25 02:01:22;;;;;;;5.18;4.78;;;;;;;15.32;100.00;101953.09;4992904;28;20184;-42
2023/06/25 02:03:49;;;;;;;6.00;5.40;;;;;;;15.29;100.00;101956.78;5010290;28;20220;-41
2023/06/25 02:06:15;;;;;;;7.78;5.10;;;;;;;15.15;100.00;101951.94;5010402;28;20171;-43
2023/06/25 02:08:41;;;;;;;5.40;4.90;;;;;;;15.17;100.00;101950.03;5010427;28;20669;-43
2023/06/25 02:11:07;;;;;;;5.80;5.30;;;;;;;15.06;100.00;101943.31;4992696;28;20168;-41
2023/06/25 02:13:36;;;;;;;6.20;5.60;;;;;;;14.86;100.00;101947.66;4992503;28;20212;-43
2023/06/25 02:16:02;;;;;;;7.75;5.85;;;;;;;14.73;100.00;101957.16;4992953;28;20177;-41
2023/06/25 02:18:28;;;;;;;7.45;6.70;;;;;;;14.65;100.00;101951.16;5010504;28;20165;-44
2023/06/25 02:20:54;;;;;;;6.50;5.90;;;;;;;14.67;100.00;101946.59;5010176;28;20523;-44
2023/06/25 02:23:20;;;;;;;5.93;5.40;;;;;;;14.74;100.00;101964.34;5010648;28;20776;-43
2023/06/25 02:25:46;;;;;;;6.90;6.20;;;;;;;14.89;100.00;101962.84;4992353;28;20272;-43
2023/06/25 02:28:12;;;;;;;6.68;5.72;;;;;;;14.97;100.00;101945.44;5009458;28;20587;-43
2023/06/25 02:30:38;;;;;;;5.43;5.03;;;;;;;15.02;100.00;101951.56;5010156;28;20191;-43
2023/06/25 02:33:03;;;;;;;6.18;5.68;;;;;;;14.83;100.00;101945.97;4992223;28;20263;-43
2023/06/25 02:35:29;;;;;;;5.82;5.32;;;;;;;14.98;100.00;101941.81;5009709;28;20215;-43
2023/06/25 02:37:54;;;;;;;5.60;5.20;;;;;;;15.03;100.00;101938.94;5009813;28;20169;-42
2023/06/25 02:40:21;;;;;;;5.78;5.32;;;;;;;14.99;100.00;101937.28;4992411;28;20180;-44
2023/06/25 02:42:47;;;;;;;5.95;5.45;;;;;;;14.93;100.00;101946.47;5009549;28;20189;-45
2023/06/25 02:45:13;;;;;;;6.68;5.97;;;;;;;14.87;100.00;101940.44;4992179;28;20173;-43
2023/06/25 02:47:39;;;;;;;5.72;5.22;;;;;;;14.87;100.00;101944.03;5009732;28;20184;-43
2023/06/25 02:50:05;;;;;;;6.05;5.55;;;;;;;14.88;100.00;101944.91;5008285;28;20802;-44
2023/06/25 02:52:32;;;;;;;5.90;5.40;;;;;;;14.88;100.00;101944.91;4991734;28;20232;-44
2023/06/25 02:54:58;;;;;;;6.43;5.82;;;;;;;14.71;100.00;101943.72;4991887;28;20216;-43
2023/06/25 02:57:29;;;;;;;5.97;5.38;;;;;;;14.61;100.00;101945.91;5009564;28;20365;-44
2023/06/25 02:59:58;;;;;;;6.47;5.75;;;;;;;14.66;100.00;101943.03;4975575;28;20204;-43
2023/06/25 03:02:24;;;;;;;5.85;5.32;;;;;;;14.76;100.00;101944.44;4991522;28;20632;-42
2023/06/25 03:04:50;;;;;;;6.30;5.70;;;;;;;14.79;100.00;101946.16;4991030;28;20208;-43
2023/06/25 03:07:16;;;;;;;7.15;5.32;;;;;;;14.77;100.00;101937.22;4991841;28;20541;-42
2023/06/25 03:09:42;;;;;;;6.70;5.60;;;;;;;14.60;100.00;101948.66;4991903;28;20265;-44
2023/06/25 03:12:08;;;;;;;7.05;6.20;;;;;;;14.76;100.00;101936.34;4992007;28;20169;-43
2023/06/25 03:14:36;;;;;;;6.32;5.35;;;;;;;14.78;100.00;101945.28;5008578;28;20200;-44
2023/06/25 03:17:04;;;;;;;6.22;5.63;;;;;;;14.80;100.00;101939.78;4991764;28;20227;-43
2023/06/25 03:19:30;;;;;;;6.53;5.93;;;;;;;14.74;100.00;101943.63;4991642;28;20206;-46
2023/06/25 03:21:56;;;;;;;7.43;5.90;;;;;;;14.79;100.00;101938.94;4991628;28;20612;-43
2023/06/25 03:24:22;;;;;;;6.20;5.70;;;;;;;14.86;100.00;101926.06;4991737;28;20696;-44
2023/06/25 03:26:50;;;;;;;5.47;5.05;;;;;;;14.87;100.00;101926.94;5008039;28;20176;-44
2023/06/25 03:29:16;;;;;;;7.10;6.40;;;;;;;14.76;100.00;101936.34;4991912;28;20468;-44
2023/06/25 03:31:41;;;;;;;5.82;5.32;;;;;;;14.84;100.00;101926.13;5009307;28;20264;-43
2023/06/25 03:34:10;;;;;;;6.47;5.75;;;;;;;14.93;100.00;101926.72;4991529;28;20220;-43
2023/06/25 03:36:35;;;;;;;5.97;5.47;;;;;;;14.95;100.00;101932.94;4991781;28;20173;-42
2023/06/25 03:39:01;;;;;;;6.07;5.47;;;;;;;14.91;100.00;101936.69;4993441;28;20200;-44
2023/06/25 03:41:28;;;;;;;6.95;6.15;;;;;;;14.93;100.00;101924.91;4995353;28;20235;-42
2023/06/25 03:43:54;;;;;;;7.60;6.70;;;;;;;14.92;100.00;101927.69;5065455;23;20228;-45
2023/06/25 03:46:19;;;;;;;6.55;5.97;;;;;;;14.94;100.00;101926.66;5009044;28;20206;-43
2023/06/25 03:48:47;;;;;;;6.88;6.28;;;;;;;14.98;100.00;101927.44;5013989;28;20623;-44
2023/06/25 03:51:12;;;;;;;6.30;5.70;;;;;;;14.99;100.00;101918.38;5011957;28;20187;-44
2023/06/25 03:53:40;;;;;;;6.07;5.47;;;;;;;15.05;100.00;101918.16;5014604;28;20212;-44
2023/06/25 03:56:06;;;;;;;6.22;5.63;;;;;;;15.12;100.00;101916.97;5018955;28;20241;-45
2023/06/25 03:58:33;;;;;;;8.10;7.07;;;;;;;15.09;100.00;101927.91;5002908;28;20203;-45
2023/06/25 04:00:58;;;;;;;8.13;6.47;;;;;;;15.14;100.00;101925.00;5002115;28;20275;-44
2023/06/25 04:03:25;;;;;;;7.60;6.90;;;;;;;15.20;100.00;101927.47;4994435;28;20292;-43
2023/06/25 04:05:51;;;;;;;6.93;6.25;;;;;;;15.29;100.00;101919.00;4998749;28;20180;-45
2023/06/25 04:08:16;;;;;;;7.10;6.40;;;;;;;15.29;100.00;101920.81;5016697;28;20239;-45
2023/06/25 04:10:42;;;;;;;6.57;5.65;;;;;;;15.27;100.00;101912.78;5010173;28;20178;-45
2023/06/25 04:13:07;;;;;;;6.50;5.93;;;;;;;15.29;100.00;101912.72;5000746;28;20201;-45
2023/06/25 04:15:33;;;;;;;7.10;6.40;;;;;;;15.36;100.00;101908.81;5004922;28;20553;-45
2023/06/25 04:17:59;;;;;;;7.20;6.55;;;;;;;15.33;100.00;101909.81;5006755;28;20222;-44
2023/06/25 04:20:27;;;;;;;6.15;5.55;;;;;;;15.41;100.00;101912.19;5006497;28;20184;-46
2023/06/25 04:22:57;;;;;;;5.57;5.07;;;;;;;15.51;100.00;101912.72;5003133;28;20171;-47
2023/06/25 04:25:22;;;;;;;6.65;6.05;;;;;;;15.51;100.00;101926.22;5006984;28;20177;-47
2023/06/25 04:27:50;;;;;;;7.18;6.38;;;;;;;15.57;100.00;101915.16;5007306;28;20177;-46
2023/06/25 04:30:17;;;;;;;7.38;6.68;;;;;;;15.51;100.00;101916.28;5015812;28;20192;-46
2023/06/25 04:32:43;;;;;;;7.70;6.35;;;;;;;15.55;100.00;101919.75;5015813;28;20245;-47
2023/06/25 04:35:09;;;;;;;6.85;6.20;;;;;;;15.59;100.00;101905.16;4984380;28;20744;-46
2023/06/25 04:37:37;;;;;;;6.70;6.10;;;;;;;15.52;100.00;101909.06;5017475;28;20786;-45
2023/06/25 04:40:05;;;;;;;8.70;6.65;;;;;;;15.60;100.00;101912.31;5004000;28;20191;-45
2023/06/25 04:42:31;;;;;;;6.93;6.22;;;;;;;15.72;100.00;101913.66;5012804;28;20271;-46
2023/06/25 04:44:56;;;;;;;7.72;6.10;;;;;;;15.82;100.00;101909.63;5017846;28;20342;-47
2023/06/25 04:47:22;;;;;;;7.05;6.30;;;;;;;15.92;100.00;101908.28;5012398;28;20192;-48
2023/06/25 04:49:48;;;;;;;6.85;6.00;;;;;;;16.06;100.00;101913.09;5007942;28;20191;-48
2023/06/25 04:52:18;;;;;;;6.93;6.22;;;;;;;16.17;100.00;101902.66;5009354;28;20517;-45
2023/06/25 04:54:44;;;;;;;6.65;6.05;;;;;;;16.28;100.00;101910.31;5003525;28;20343;-47
2023/06/25 04:57:10;;;;;;;7.30;6.47;;;;;;;16.39;100.00;101899.88;5007455;28;20283;-52
2023/06/25 04:59:36;;;;;;;7.75;6.97;;;;;;;16.47;100.00;101900.41;5001752;28;20561;-45
2023/06/25 05:02:01;;;;;;;7.53;5.90;;;;;;;16.59;100.00;101904.38;5009462;28;20200;-45
2023/06/25 05:04:26;;;;;;;7.38;6.78;;;;;;;16.70;100.00;101903.88;5011797;28;20201;-45
2023/06/25 05:06:52;;;;;;;10.80;7.63;;;;;;;16.83;100.00;101901.50;5019497;28;20331;-45
2023/06/25 05:09:17;;;;;;;7.75;7.03;;;;;;;16.95;100.00;101908.19;5022504;28;20541;-45
2023/06/25 05:11:43;;;;;;;7.40;6.65;;;;;;;17.01;100.00;101903.34;5002479;28;20181;-44
2023/06/25 05:14:08;;;;;;;10.05;7.97;;;;;;;17.11;100.00;101905.59;5002246;28;20632;-45
2023/06/25 05:16:34;;;;;;;9.50;8.38;;;;;;;17.24;100.00;101902.22;4999631;28;20181;-42
2023/06/25 05:18:59;;;;;;;10.35;8.80;;;;;;;17.34;100.00;101897.22;5000612;28;20292;-43
2023/06/25 05:21:25;;;;;;;9.63;8.50;;;;;;;17.42;100.00;101902.25;5002314;28;20185;-45
2023/06/25 05:24:01;;;;;;;12.07;9.27;;;;;;;17.49;100.00;101899.19;5001453;28;20657;-44
2023/06/25 05:26:27;;;;;;;10.50;9.05;;;;;;;17.55;100.00;101895.25;5004242;28;20246;-41
2023/06/25 05:28:53;;;;;;;9.68;8.73;;;;;;;17.63;100.00;101908.44;4997338;28;20169;-42
2023/06/25 05:31:19;;;;;;;10.68;9.75;;;;;;;17.70;100.00;101901.75;5003844;28;20187;-43
2023/06/25 05:33:44;;;;;;;13.52;10.77;;;;;;;17.81;100.00;101906.63;5010383;28;20646;-42
2023/06/25 05:36:12;;;;;;;13.27;11.60;;;;;;;17.87;100.00;101898.22;5004205;28;20198;-43
2023/06/25 05:38:37;;;;;;;12.15;10.82;;;;;;;17.99;100.00;101908.41;5012200;28;20180;-43
2023/06/25 05:41:03;;;;;;;13.70;12.38;;;;;;;18.08;100.00;101893.47;5011658;28;20707;-43
2023/06/25 05:43:28;;;;;;;12.70;11.50;;;;;;;18.15;100.00;101894.03;5005163;28;20208;-41
2023/06/25 05:45:54;;;;;;;14.18;11.25;;;;;;;18.24;100.00;101891.72;5005660;28;20207;-43
2023/06/25 05:48:19;;;;;;;13.07;11.77;;;;;;;18.36;100.00;101884.75;5000516;28;20207;-43
2023/06/25 05:50:45;;;;;;;13.40;12.05;;;;;;;18.41;100.00;101882.69;5002187;28;20631;-42
2023/06/25 05:53:10;;;;;;;13.25;11.93;;;;;;;18.48;100.00;101888.66;5013966;28;20221;-43
2023/06/25 05:55:36;;;;;;;14.27;12.13;;;;;;;18.49;100.00;101884.94;5007157;28;20183;-42
2023/06/25 05:58:02;;;;;;;14.07;12.68;;;;;;;18.55;100.00;101876.47;5006472;28;20180;-43
2023/06/25 06:00:27;;;;;;;13.77;12.38;;;;;;;18.66;100.00;101886.75;5014347;28;20205;-43
2023/06/25 06:02:53;;;;;;;14.68;11.98;;;;;;;18.79;100.00;101882.41;5013928;28;20208;-42
2023/06/25 06:05:18;;;;;;;14.13;12.20;;;;;;;18.80;100.00;101877.84;5009207;28;20291;-42
2023/06/25 06:07:44;;;;;;;12.85;11.65;;;;;;;18.89;100.00;101872.81;4996386;28;20185;-43
2023/06/25 06:10:13;;;;;;;14.63;11.75;;;;;;;18.95;100.00;101882.41;5000813;28;20232;-42
2023/06/25 06:12:39;;;;;;;15.55;11.35;;;;;;;19.03;100.00;101872.00;5003683;28;20208;-42
2023/06/25 06:15:05;;;;;;;13.40;11.38;;;;;;;19.10;100.00;101869.81;5010989;28;20244;-43
2023/06/25 06:17:30;;;;;;;14.73;11.23;;;;;;;19.32;100.00;101875.75;5010230;28;20181;-42
2023/06/25 06:19:55;;;;;;;12.10;10.80;;;;;;;19.43;100.00;101876.97;5017110;28;20597;-42
2023/06/25 06:22:21;;;;;;;15.05;10.02;;;;;;;19.59;100.00;101876.94;5019287;28;20215;-42
2023/06/25 06:24:46;;;;;;;11.57;10.32;;;;;;;19.59;100.00;101863.34;5000757;28;20213;-43
2023/06/25 06:27:12;;;;;;;13.93;11.90;;;;;;;19.79;98.93;101868.50;4996964;28;20271;-41
2023/06/25 06:29:37;;;;;;;15.25;10.52;;;;;;;19.84;97.27;101873.66;5004004;28;20404;-43
2023/06/25 06:32:03;;;;;;;11.00;9.93;;;;;;;20.13;96.13;101859.13;5011776;28;20546;-41
2023/06/25 06:34:29;;;;;;;10.82;9.57;;;;;;;20.49;94.61;101865.97;4997179;28;20256;-42
2023/06/25 06:36:54;;;;;;;13.60;9.25;;;;;;;20.86;93.42;101857.28;5001334;28;20231;-42
2023/06/25 06:39:20;;;;;;;11.30;9.52;;;;;;;20.96;91.01;101859.31;5002969;28;20565;-41
2023/06/25 06:41:45;;;;;;;13.43;9.15;;;;;;;21.28;89.70;101845.41;5001722;28;20184;-43
2023/06/25 06:44:14;;;;;;;9.60;8.65;;;;;;;21.14;88.29;101851.78;4996295;28;20201;-41
2023/06/25 06:46:41;;;;;;;9.95;8.73;;;;;;;21.68;86.19;101833.66;5005764;28;20325;-43
2023/06/25 06:49:06;;;;;;;9.45;8.50;;;;;;;22.12;83.87;101832.41;5010747;28;20187;-42
2023/06/25 06:51:32;;;;;;;9.38;8.43;;;;;;;21.56;81.80;101824.50;5006816;28;20183;-42
2023/06/25 06:53:58;;;;;;;10.63;9.45;;;;;;;21.34;82.11;101825.91;5004264;28;20203;-41
2023/06/25 06:56:23;;;;;;;11.95;8.70;;;;;;;21.36;81.75;101826.69;4999590;28;20179;-42
2023/06/25 06:58:49;;;;;;;10.70;9.57;;;;;;;21.69;81.93;101819.94;5006965;28;20278;-43
2023/06/25 07:01:14;;;;;;;10.60;8.68;;;;;;;22.13;81.87;101832.28;4999002;28;20635;-43
2023/06/25 07:03:40;;;;;;;9.57;7.88;;;;;;;22.28;79.16;101813.09;4999504;28;20213;-42
2023/06/25 07:06:05;;;;;;;13.27;8.90;;;;;;;22.78;78.78;101822.16;5007299;28;20179;-41
2023/06/25 07:08:31;;;;;;;8.77;7.38;;;;;;;22.99;76.96;101811.50;5005285;28;20314;-42
2023/06/25 07:10:56;;;;;;;7.93;6.78;;;;;;;22.36;74.83;101807.94;5006901;28;20208;-41
2023/06/25 07:13:22;;;;;;;8.15;7.35;;;;;;;21.74;75.07;101804.09;5017930;28;20879;-43
2023/06/25 07:15:47;;;;;;;7.90;7.10;;;;;;;21.72;74.64;101806.06;5017904;28;20191;-42
2023/06/25 07:18:13;;;;;;;8.02;7.22;;;;;;;22.00;75.18;101809.59;5016374;28;20176;-43
2023/06/25 07:20:38;;;;;;;10.02;7.32;;;;;;;22.40;75.53;101815.81;5006273;28;20177;-41
2023/06/25 07:23:04;;;;;;;7.03;6.28;;;;;;;22.53;73.84;101804.88;5005562;28;20311;-42
2023/06/25 07:25:29;;;;;;;7.53;6.53;;;;;;;22.75;73.02;101795.09;5007415;28;20646;-42
2023/06/25 07:27:55;;;;;;;8.32;7.53;;;;;;;22.87;73.24;101796.03;5013739;28;20173;-42
2023/06/25 07:30:20;;;;;;;7.47;6.40;;;;;;;22.95;73.83;101794.47;5015616;28;20667;-41
2023/06/25 07:32:46;;;;;;;7.32;6.60;;;;;;;23.09;72.37;101781.63;5009585;28;20211;-42
2023/06/25 07:35:11;;;;;;;7.30;6.63;;;;;;;22.99;70.76;101776.84;5002092;28;20182;-43
2023/06/25 07:37:37;;;;;;;9.00;6.75;;;;;;;23.27;70.49;101785.72;5006085;28;20201;-41
2023/06/25 07:40:03;;;;;;;6.68;5.95;;;;;;;23.48;69.84;101771.34;5012346;28;20176;-43
2023/06/25 07:42:28;;;;;;;8.05;7.25;;;;;;;23.36;70.47;101776.78;5004035;28;20211;-42
2023/06/25 07:44:54;;;;;;;6.38;5.78;;;;;;;23.18;70.49;101778.22;5010099;28;20205;-41
2023/06/25 07:47:19;;;;;;;8.25;7.22;;;;;;;23.29;70.35;101772.81;5005536;28;20187;-46
2023/06/25 07:49:45;;;;;;;8.35;7.55;;;;;;;22.82;70.26;101775.38;5001901;28;20185;-45
2023/06/25 07:52:11;;;;;;;7.03;6.30;;;;;;;23.18;69.90;101770.88;5009414;28;20187;-47
2023/06/25 07:54:36;;;;;;;8.27;5.60;;;;;;;23.33;67.80;101763.38;5011959;28;20697;-46
2023/06/25 07:57:02;;;;;;;6.20;5.60;;;;;;;23.77;67.15;101767.25;5005123;28;20176;-45
2023/06/25 07:59:27;;;;;;;5.95;5.32;;;;;;;24.29;66.71;101762.16;5004553;28;20245;-45
2023/06/25 08:01:53;;;;;;;5.32;4.93;;;;;;;24.36;64.34;101741.50;5007720;28;20215;-48
2023/06/25 08:04:19;;;;;;;5.63;4.45;;;;;;;23.43;62.88;101737.03;5012488;28;20197;-46
2023/06/25 08:06:44;;;;;;;5.28;4.78;;;;;;;23.93;63.43;101739.53;5004909;28;20188;-46
2023/06/25 08:09:10;;;;;;;5.45;4.93;;;;;;;24.04;63.19;101728.56;5007767;28;20568;-47
2023/06/25 08:11:36;;;;;;;5.50;4.68;;;;;;;24.16;62.36;101726.72;5009766;28;20598;-46
2023/06/25 08:14:01;;;;;;;5.18;4.72;;;;;;;24.07;61.74;101732.91;5007303;28;20224;-45
2023/06/25 08:16:29;;;;;;;5.13;4.60;;;;;;;24.21;61.22;101721.72;5003326;28;20694;-45
2023/06/25 08:18:54;;;;;;;5.75;4.75;;;;;;;23.88;60.70;101713.50;5004027;28;20172;-45
2023/06/25 08:21:20;;;;;;;5.45;4.55;;;;;;;24.03;60.26;101718.63;5010128;28;20197;-45
2023/06/25 08:23:46;;;;;;;5.10;4.60;;;;;;;24.17;60.06;101714.75;5010329;28;20518;-45
2023/06/25 08:26:15;;;;;;;4.57;4.18;;;;;;;24.36;59.64;101702.25;5014885;28;20179;-44
2023/06/25 08:28:41;;;;;;;5.75;4.75;;;;;;;23.66;60.01;101717.94;5016303;28;20217;-45
2023/06/25 08:31:07;;;;;;;4.88;4.47;;;;;;;24.77;60.36;101717.16;5005696;28;20275;-44
2023/06/25 08:33:34;;;;;;;5.25;3.97;;;;;;;25.24;59.25;101712.28;5004888;28;20212;-45
2023/06/25 08:35:59;;;;;;;5.32;3.85;;;;;;;25.13;57.16;101695.84;5006478;28;20271;-45
2023/06/25 08:38:27;;;;;;;4.43;4.03;;;;;;;25.74;56.23;101685.00;5001174;28;20268;-44
2023/06/25 08:40:53;;;;;;;6.25;3.33;;;;;;;26.49;57.57;101705.66;5013506;28;20180;-43
2023/06/25 08:43:19;;;;;;;4.70;3.20;;;;;;;26.46;54.58;101674.88;5016106;28;20200;-45
2023/06/25 08:45:46;;;;;;;4.28;3.78;;;;;;;26.67;54.97;101686.63;5003333;28;20180;-45
2023/06/25 08:48:16;;;;;;;5.95;5.35;;;;;;;26.14;54.95;101672.34;4997927;28;20177;-45
2023/06/25 08:50:45;;;;;;;7.13;6.50;;;;;;;25.98;55.29;101675.59;5002775;28;20650;-45
2023/06/25 08:53:11;;;;;;;6.03;5.43;;;;;;;26.59;55.25;101681.00;5008134;28;20782;-47
2023/06/25 08:55:38;;;;;;;5.63;4.60;;;;;;;26.67;54.25;101677.53;5006248;28;20185;-46
2023/06/25 08:58:03;;;;;;;4.80;3.78;;;;;;;26.67;53.25;101658.28;5005499;28;20199;-46
2023/06/25 09:00:29;;;;;;;3.67;3.30;;;;;;;26.42;51.29;101637.69;5006641;28;20188;-46
2023/06/25 09:02:55;;;;;;;3.67;3.40;;;;;;;25.81;53.09;101649.63;5007526;28;20208;-45
2023/06/25 09:05:25;;;;;;;5.28;3.30;;;;;;;26.60;51.14;101644.25;5002644;28;20179;-45
2023/06/25 09:07:50;;;;;;;3.67;2.95;;;;;;;27.13;49.75;101630.06;5004784;28;20211;-46
2023/06/25 09:10:16;;;;;;;3.38;2.65;;;;;;;27.62;48.32;101613.44;4993002;28;20177;-46
2023/06/25 09:12:47;;;;;;;2.97;2.78;;;;;;;27.12;48.27;101605.44;5004300;28;20195;-45
2023/06/25 09:15:12;;;;;;;2.92;2.72;;;;;;;27.42;46.87;101593.38;5007001;28;20182;-46
2023/06/25 09:17:38;;;;;;;2.88;2.67;;;;;;;27.13;48.29;101594.28;5009361;28;20192;-48
2023/06/25 09:20:06;;;;;;;3.22;2.60;;;;;;;28.02;46.25;101587.44;5007397;28;20172;-46
2023/06/25 09:22:33;;;;;;;2.80;2.50;;;;;;;27.25;46.92;101588.66;5005620;28;20280;-44
2023/06/25 09:24:59;;;;;;;2.72;2.47;;;;;;;27.12;48.03;101609.03;5010323;28;20209;-46
2023/06/25 09:27:25;;;;;;;5.40;2.53;;;;;;;26.85;48.41;101611.69;5011154;28;20172;-46
2023/06/25 09:29:55;;;;;;;7.65;3.15;;;;;;;28.06;48.44;101613.66;5003117;28;20187;-45
2023/06/25 09:32:20;;;;;;;2.50;2.20;;;;;;;28.40;45.00;101576.31;5002266;28;20263;-45
2023/06/25 09:34:46;;;;;;;3.10;2.88;;;;;;;26.35;50.54;101620.03;5006673;28;20242;-45
2023/06/25 09:37:12;;;;;;;3.10;2.78;;;;;;;26.86;49.98;101627.19;5013222;28;20187;-44
2023/06/25 09:39:38;;;;;;;2.72;2.53;;;;;;;27.98;47.91;101610.81;5015646;28;20207;-45
2023/06/25 09:42:06;;;;;;;3.13;2.60;;;;;;;28.18;45.86;101581.25;5028842;22;20224;-44
2023/06/25 09:44:33;;;;;;;3.50;2.78;;;;;;;27.43;46.97;101591.47;5010344;28;20192;-46
2023/06/25 09:47:06;;;;;;;2.70;2.50;;;;;;;28.46;46.73;101600.50;5010508;28;20273;-43
2023/06/25 09:49:32;;;;;;;3.60;2.30;;;;;;;28.31;44.92;101567.09;5010485;28;20184;-43
2023/06/25 09:52:14;;;;;;;3.25;2.60;;;;;;;28.22;47.26;101601.09;5010589;28;20211;-44
2023/06/25 09:54:43;;;;;;;7.47;4.35;;;;;;;26.24;53.70;101660.38;5010383;28;20203;-44
2023/06/25 09:57:12;;;;;;;6.07;3.85;;;;;;;25.79;54.10;101665.38;5032591;22;20230;-43
2023/06/25 09:59:38;;;;;;;3.95;3.00;;;;;;;25.66;53.19;101650.00;4987764;28;20199;-42
2023/06/25 10:02:06;;;;;;;3.42;3.05;;;;;;;26.47;53.31;101655.47;4990387;28;20165;-44
2023/06/25 10:04:33;;;;;;;4.95;3.10;;;;;;;25.99;52.33;101638.88;4985892;28;20273;-44
2023/06/25 10:06:59;;;;;;;3.20;2.90;;;;;;;26.02;52.04;101644.09;4971099;28;20573;-42
2023/06/25 10:09:24;;;;;;;5.05;3.55;;;;;;;26.40;52.98;101648.81;4970710;28;20173;-42
2023/06/25 10:11:51;;;;;;;4.40;3.50;;;;;;;25.60;55.95;101666.13;4971117;28;20228;-43
2023/06/25 10:14:16;;;;;;;8.25;5.43;;;;;;;25.17;57.84;101678.97;4970908;28;20619;-43
2023/06/25 10:16:52;;;;;;;5.22;4.72;;;;;;;25.00;61.22;101712.47;4971538;28;20269;-43
2023/06/25 10:19:25;;;;;;;10.68;6.57;;;;;;;24.58;64.45;101724.19;4971088;28;20181;-43
2023/06/25 10:22:08;;;;;;;9.40;6.50;;;;;;;24.86;66.26;101728.22;4974808;28;20186;-44
2023/06/25 10:24:40;;;;;;;4.75;3.70;;;;;;;25.21;59.94;101679.59;4978786;28;20343;-44
2023/06/25 10:27:07;;;;;;;3.85;3.45;;;;;;;25.97;54.53;101624.44;4977911;28;20204;-44
2023/06/25 11:12:45;;;;;;;6.05;4.68;;;;;;;25.02;60.83;101651.00;6071516;23;21403;-43
2023/06/25 11:15:10;;;;;;;6.80;5.45;;;;;;;24.48;62.75;101673.91;5029687;28;20286;-43
2023/06/25 11:17:37;;;;;;;10.07;5.72;;;;;;;24.62;61.97;101659.03;5032659;28;20311;-43
2023/06/25 11:20:03;;;;;;;6.65;5.35;;;;;;;24.60;62.56;101652.84;5032871;28;20186;-44
2023/06/25 11:22:29;;;;;;;5.05;4.55;;;;;;;25.01;62.25;101654.75;5047662;28;20179;-44
2023/06/25 11:24:56;;;;;;;5.75;5.15;;;;;;;25.01;60.93;101631.94;5033049;28;20285;-43
2023/06/25 11:27:28;;;;;;;5.72;4.53;;;;;;;25.57;59.99;101637.09;5033232;28;20180;-44
2023/06/25 11:29:54;;;;;;;5.60;5.10;;;;;;;24.97;61.01;101638.69;5033277;28;20179;-46
2023/06/25 11:32:24;;;;;;;7.05;5.05;;;;;;;24.73;60.72;101642.56;5031744;28;20179;-42
2023/06/25 11:34:50;;;;;;;5.47;4.97;;;;;;;24.78;59.94;101623.84;5033413;28;20578;-41
2023/06/25 11:37:20;;;;;;;5.03;4.60;;;;;;;25.20;60.11;101625.75;5033001;28;20180;-44
2023/06/25 11:39:50;;;;;;;6.30;5.70;;;;;;;24.55;62.05;101644.13;5032717;28;20231;-45
2023/06/25 11:42:18;;;;;;;6.28;5.53;;;;;;;24.59;62.07;101638.25;5032694;28;20194;-41
2023/06/25 11:44:45;;;;;;;5.78;5.25;;;;;;;24.69;62.24;101638.34;5032597;28;20230;-44
2023/06/25 11:47:14;;;;;;;7.13;5.03;;;;;;;24.85;62.34;101643.38;5032725;28;20195;-43
2023/06/25 11:49:40;;;;;;;6.18;4.88;;;;;;;25.20;61.43;101634.00;5031010;28;20177;-42
2023/06/25 11:52:06;;;;;;;6.55;4.72;;;;;;;25.23;60.49;101620.88;5031788;28;20190;-42
2023/06/25 11:54:31;;;;;;;5.22;4.30;;;;;;;25.18;60.48;101631.34;5030672;28;20213;-41
2023/06/25 11:56:57;;;;;;;5.03;4.55;;;;;;;24.93;61.06;101629.03;5031985;28;20580;-43
2023/06/25 11:59:23;;;;;;;6.93;4.90;;;;;;;24.61;62.17;101636.25;5029230;28;20277;-43